Cape Hatteras National Seash, North Carolina
Current Conditions -  °F | °C
As of 1:35 AM on Sunday 26 Oct 2014 (Local Time) from KMQI Reporting Station
Clear Clear  
Wind Chill: 58°   Ceiling: Unl
Heat Index: 58°   Visibility: 10mi
Dew Point: 51°   Wind: 8mph
Humidity: 76%   Direction: 230°SW
Pressure: 29.79"   Gusts: NA
Location:  35.8834°N, 75.6616°W
Report Text: KMQI 260535Z AUTO 23007KT 10SM CLR 15/11 A2979 RMK AO2 T01460105
Loading
Personal Weather Stations






























Interactive Weather Map New forecast layout! Learn more

10-Day Weather Forecast

Advertisements
Track Severe Weather on mobile